createdAt,value
2018-05-21T00:00:36.955Z,24.78
2018-05-21T00:03:09.251Z,24.69
2018-05-21T00:05:40.969Z,24.57
2018-05-21T00:08:12.515Z,24.51
2018-05-21T00:10:44.072Z,24.50
2018-05-21T00:13:15.550Z,24.58
2018-05-21T00:15:47.338Z,24.64
2018-05-21T00:18:19.067Z,24.68
2018-05-21T00:20:50.536Z,24.61
2018-05-21T00:23:22.484Z,24.53
2018-05-21T00:25:54.448Z,24.51
2018-05-21T00:28:25.938Z,24.44
2018-05-21T00:30:57.954Z,24.37
2018-05-21T00:33:29.543Z,24.28
2018-05-21T00:36:01.484Z,24.23
2018-05-21T00:38:33.229Z,24.10
2018-05-21T00:41:04.681Z,24.01
2018-05-21T00:43:36.415Z,23.98
2018-05-21T00:46:08.317Z,24.04
2018-05-21T00:48:39.939Z,24.13
2018-05-21T00:51:11.942Z,24.16
2018-05-21T00:53:43.960Z,24.14
2018-05-21T00:56:15.539Z,24.10
2018-05-21T00:58:47.247Z,24.09
2018-05-21T01:01:18.541Z,24.16
2018-05-21T01:03:50.004Z,24.12
2018-05-21T01:06:21.830Z,24.02
2018-05-21T01:08:53.542Z,23.94
2018-05-21T01:11:25.089Z,23.81
2018-05-21T01:13:57.093Z,23.75
2018-05-21T01:16:30.298Z,23.83
2018-05-21T01:19:03.296Z,23.83
2018-05-21T01:21:35.337Z,23.75
2018-05-21T01:24:07.092Z,23.74
2018-05-21T01:26:41.897Z,23.64
2018-05-21T01:29:14.765Z,23.54
2018-05-21T01:31:47.508Z,23.45
2018-05-21T01:34:18.030Z,23.42
2018-05-21T01:36:49.957Z,23.39
2018-05-21T01:39:21.933Z,23.42
2018-05-21T01:41:53.557Z,23.48
2018-05-21T01:44:25.405Z,23.53
2018-05-21T01:46:57.427Z,23.50
2018-05-21T01:49:29.102Z,23.46
2018-05-21T01:52:00.983Z,23.41
2018-05-21T01:54:32.644Z,23.42
2018-05-21T01:57:05.486Z,23.39
2018-05-21T01:59:37.123Z,23.32
2018-05-21T02:02:09.242Z,23.31
2018-05-21T02:04:40.786Z,23.35
2018-05-21T02:07:12.947Z,23.36
2018-05-21T02:09:45.222Z,23.30
2018-05-21T02:12:16.799Z,23.25
2018-05-21T02:14:49.430Z,23.23
2018-05-21T02:17:21.262Z,23.19
2018-05-21T02:19:52.815Z,23.09
2018-05-21T02:22:24.755Z,23.02
2018-05-21T02:24:56.530Z,22.98
2018-05-21T02:27:28.271Z,22.95
2018-05-21T02:29:59.795Z,22.92
2018-05-21T02:34:02.319Z,22.91
2018-05-21T02:36:33.947Z,22.86
2018-05-21T02:39:05.545Z,22.78
2018-05-21T02:41:37.439Z,22.75
2018-05-21T02:44:09.223Z,22.75
2018-05-21T02:46:41.650Z,22.69
2018-05-21T02:49:13.612Z,22.67
2018-05-21T02:51:45.523Z,22.63
2018-05-21T02:54:17.260Z,22.61
2018-05-21T02:56:48.966Z,22.62
2018-05-21T02:59:20.567Z,22.65
2018-05-21T03:01:51.972Z,22.67
2018-05-21T03:08:00.348Z,22.63
2018-05-21T03:10:32.019Z,22.60
2018-05-21T03:13:03.941Z,22.55
2018-05-21T03:15:35.875Z,22.51
2018-05-21T03:18:06.505Z,22.47
2018-05-21T03:20:39.297Z,22.40
2018-05-21T03:23:11.916Z,22.37
2018-05-21T03:26:50.531Z,22.31
2018-05-21T03:29:23.255Z,22.26
2018-05-21T03:31:54.962Z,22.21
2018-05-21T03:34:27.106Z,22.20
2018-05-21T03:36:58.531Z,22.21
2018-05-21T03:39:30.239Z,22.17
2018-05-21T03:42:01.949Z,22.11
2018-05-21T03:44:33.978Z,22.07
2018-05-21T03:47:05.545Z,22.03
2018-05-21T03:49:37.452Z,22.02
2018-05-21T03:52:09.151Z,21.96
2018-05-21T03:54:40.543Z,21.92
2018-05-21T03:59:49.943Z,21.84
2018-05-21T04:02:32.608Z,21.79
2018-05-21T04:05:05.558Z,21.82
2018-05-21T04:09:10.907Z,21.86
2018-05-21T04:11:42.963Z,21.86
2018-05-21T04:14:16.025Z,21.82
2018-05-21T04:16:47.935Z,21.83
2018-05-21T04:19:19.784Z,21.88
2018-05-21T04:23:09.611Z,21.83
2018-05-21T04:25:41.126Z,21.77
2018-05-21T04:28:12.510Z,21.71
2018-05-21T04:32:50.047Z,21.67
2018-05-21T04:37:19.187Z,21.62
2018-05-21T04:40:14.337Z,21.57
2018-05-21T04:42:45.950Z,21.60
2018-05-21T04:45:17.758Z,21.62
2018-05-21T04:47:49.920Z,21.56
2018-05-21T04:50:21.463Z,21.47
2018-05-21T04:52:53.343Z,21.40
2018-05-21T04:55:24.979Z,21.38
2018-05-21T04:57:57.241Z,21.35
2018-05-21T05:00:28.558Z,21.32
2018-05-21T05:03:00.434Z,21.32
2018-05-21T05:05:32.062Z,21.29
2018-05-21T05:08:04.037Z,21.27
2018-05-21T05:10:35.548Z,21.27
2018-05-21T05:13:06.964Z,21.19
2018-05-21T05:15:38.545Z,21.12
2018-05-21T05:18:10.538Z,21.10
2018-05-21T05:20:42.463Z,21.09
2018-05-21T05:23:13.957Z,21.03
2018-05-21T05:25:45.557Z,21.04
2018-05-21T05:28:17.465Z,20.97
2018-05-21T05:32:59.544Z,20.99
2018-05-21T05:35:30.985Z,21.05
2018-05-21T05:38:03.233Z,20.95
2018-05-21T05:40:34.555Z,20.85
2018-05-21T05:43:06.114Z,20.81
2018-05-21T05:45:38.285Z,20.81
2018-05-21T05:48:09.976Z,20.77
2018-05-21T05:50:41.680Z,20.77
2018-05-21T05:53:12.075Z,20.77
2018-05-21T05:55:43.961Z,20.76
2018-05-21T05:58:15.973Z,20.74
2018-05-21T06:00:49.495Z,20.71
2018-05-21T06:03:22.959Z,20.66
2018-05-21T06:05:54.563Z,20.68
2018-05-21T06:08:26.320Z,20.71
2018-05-21T06:12:16.982Z,20.65
2018-05-21T06:14:48.794Z,20.63
2018-05-21T06:17:21.041Z,20.62
2018-05-21T06:19:52.702Z,20.62
2018-05-21T06:22:24.504Z,20.59
2018-05-21T06:24:56.538Z,20.59
2018-05-21T06:27:28.257Z,20.57
2018-05-21T06:30:00.042Z,20.53
2018-05-21T06:32:33.090Z,20.54
2018-05-21T06:35:05.050Z,20.62
2018-05-21T06:37:36.974Z,20.61
2018-05-21T06:40:09.266Z,20.57
2018-05-21T06:42:40.952Z,20.49
2018-05-21T06:45:12.758Z,20.47
2018-05-21T06:48:30.954Z,20.33
2018-05-21T06:51:02.345Z,20.36
2018-05-21T06:53:33.981Z,20.44
2018-05-21T06:56:05.955Z,20.48
2018-05-21T06:58:37.453Z,20.48
2018-05-21T07:01:09.250Z,20.49
2018-05-21T07:05:53.342Z,20.47
2018-05-21T07:08:24.969Z,20.51
2018-05-21T07:12:41.747Z,20.52
2018-05-21T07:15:13.488Z,20.51
2018-05-21T07:19:27.468Z,20.50
2018-05-21T07:22:00.113Z,20.49
2018-05-21T07:24:32.011Z,20.49
2018-05-21T07:27:04.028Z,20.55
2018-05-21T07:29:35.902Z,20.59
2018-05-21T07:32:07.559Z,20.60
2018-05-21T07:34:39.268Z,20.61
2018-05-21T07:37:10.698Z,20.64
2018-05-21T07:39:42.403Z,20.65
2018-05-21T07:42:13.926Z,20.62
2018-05-21T07:44:45.996Z,20.55
2018-05-21T07:47:17.921Z,20.51
2018-05-21T07:49:48.316Z,20.50
2018-05-21T07:52:19.906Z,20.53
2018-05-21T07:54:51.525Z,20.51
2018-05-21T07:57:23.109Z,20.47
2018-05-21T07:59:54.952Z,20.48
2018-05-21T08:02:27.346Z,20.50
2018-05-21T08:04:58.840Z,20.54
2018-05-21T08:07:30.885Z,20.51
2018-05-21T08:10:02.538Z,20.48
2018-05-21T08:12:34.937Z,20.51
2018-05-21T08:15:06.470Z,20.55
2018-05-21T08:17:37.931Z,20.52
2018-05-21T08:20:09.951Z,20.50
2018-05-21T08:22:41.523Z,20.53
2018-05-21T08:25:13.437Z,20.49
2018-05-21T08:27:45.226Z,20.47
2018-05-21T08:30:17.088Z,20.45
2018-05-21T08:32:48.525Z,20.44
2018-05-21T08:38:53.402Z,20.41
2018-05-21T08:41:24.938Z,20.34
2018-05-21T08:43:56.942Z,20.32
2018-05-21T08:46:28.868Z,20.31
2018-05-21T08:49:00.931Z,20.29
2018-05-21T08:51:32.309Z,20.29
2018-05-21T08:54:03.920Z,20.26
2018-05-21T08:56:35.998Z,20.28
2018-05-21T08:59:07.936Z,20.27
2018-05-21T09:01:39.530Z,20.24
2018-05-21T09:04:11.102Z,20.25
2018-05-21T09:06:42.539Z,20.31
2018-05-21T09:09:13.943Z,20.33
2018-05-21T09:11:45.548Z,20.31
2018-05-21T09:14:17.479Z,20.33
2018-05-21T09:16:49.157Z,20.35
2018-05-21T09:19:20.542Z,20.39
2018-05-21T09:21:52.531Z,20.38
2018-05-21T09:24:24.499Z,20.37
2018-05-21T09:26:58.405Z,20.33
2018-05-21T09:29:31.430Z,20.31
2018-05-21T09:32:04.408Z,20.31
2018-05-21T09:34:37.465Z,20.29
2018-05-21T09:37:10.539Z,20.29
2018-05-21T09:39:43.491Z,20.33
2018-05-21T09:42:17.327Z,20.34
2018-05-21T09:44:49.929Z,20.34
2018-05-21T09:47:23.327Z,20.33
2018-05-21T09:49:56.542Z,20.31
2018-05-21T09:52:29.407Z,20.34
2018-05-21T09:55:01.492Z,20.36
2018-05-21T09:57:34.388Z,20.40
2018-05-21T10:00:07.610Z,20.44
2018-05-21T10:02:40.403Z,20.52
2018-05-21T10:05:12.911Z,20.55
2018-05-21T10:07:45.772Z,20.54
2018-05-21T10:10:19.179Z,20.51
2018-05-21T10:12:51.744Z,20.48
2018-05-21T10:15:25.422Z,20.54
2018-05-21T10:17:58.401Z,20.50
2018-05-21T10:20:31.400Z,20.45
2018-05-21T10:23:05.198Z,20.42
2018-05-21T10:25:38.535Z,20.39
2018-05-21T10:28:10.939Z,20.35
2018-05-21T10:30:44.055Z,20.31
2018-05-21T10:33:16.932Z,20.31
2018-05-21T10:35:49.923Z,20.28
2018-05-21T10:38:23.521Z,20.22
2018-05-21T10:40:57.608Z,20.21
2018-05-21T10:43:30.406Z,20.21
2018-05-21T10:46:03.495Z,20.22
2018-05-21T10:48:37.102Z,20.13
2018-05-21T10:51:10.397Z,19.99
2018-05-21T10:53:43.476Z,19.95
2018-05-21T10:56:15.978Z,19.92
2018-05-21T10:58:49.475Z,19.91
2018-05-21T11:01:22.569Z,19.91
2018-05-21T11:03:55.434Z,19.90
2018-05-21T11:06:28.421Z,19.90
2018-05-21T11:11:41.330Z,19.82
2018-05-21T11:14:14.676Z,19.87
2018-05-21T11:16:48.547Z,19.83
2018-05-21T11:19:22.422Z,19.82
2018-05-21T11:21:54.801Z,19.82
2018-05-21T11:24:28.328Z,19.86
2018-05-21T11:27:00.903Z,19.87
2018-05-21T11:29:34.208Z,19.83
2018-05-21T11:32:07.695Z,19.75
2018-05-21T11:34:40.426Z,19.67
2018-05-21T11:37:13.455Z,19.63
2018-05-21T11:39:47.067Z,19.68
2018-05-21T11:42:20.327Z,19.70
2018-05-21T11:44:53.339Z,19.71
2018-05-21T11:47:26.548Z,19.74
2018-05-21T11:49:59.420Z,19.78
2018-05-21T11:52:32.575Z,19.81
2018-05-21T11:55:05.438Z,19.83
2018-05-21T11:57:38.110Z,19.87
2018-05-21T12:00:11.279Z,19.87
2018-05-21T12:02:44.142Z,19.88
2018-05-21T12:05:16.965Z,19.90
2018-05-21T12:07:50.053Z,19.89
2018-05-21T12:10:22.852Z,19.85
2018-05-21T12:12:55.695Z,19.86
2018-05-21T12:15:28.698Z,19.86
2018-05-21T12:18:01.511Z,19.86
2018-05-21T12:20:34.480Z,19.90
2018-05-21T12:23:07.464Z,19.91
2018-05-21T12:25:40.613Z,19.91
2018-05-21T12:28:13.444Z,19.90
2018-05-21T12:30:46.561Z,19.89
2018-05-21T12:33:19.588Z,19.88
2018-05-21T12:35:52.416Z,19.91
2018-05-21T12:38:25.641Z,19.90
2018-05-21T12:40:58.705Z,19.92
2018-05-21T12:43:31.434Z,19.91
2018-05-21T12:46:04.742Z,19.91
2018-05-21T12:48:37.445Z,19.94
2018-05-21T12:51:10.417Z,19.90
2018-05-21T12:53:43.447Z,19.86
2018-05-21T12:56:16.842Z,19.83
2018-05-21T12:58:50.539Z,19.83
2018-05-21T13:01:23.686Z,19.79
2018-05-21T13:03:55.246Z,19.74
2018-05-21T13:06:28.334Z,19.73
2018-05-21T13:09:00.936Z,19.71
2018-05-21T13:11:33.944Z,19.74
2018-05-21T13:14:07.463Z,19.75
2018-05-21T13:16:40.410Z,19.75
2018-05-21T13:19:13.828Z,19.75
2018-05-21T13:21:46.332Z,19.75
2018-05-21T13:24:19.021Z,19.72
2018-05-21T13:26:51.840Z,19.72
2018-05-21T13:29:25.435Z,19.71
2018-05-21T13:31:58.410Z,19.69
2018-05-21T13:36:25.431Z,19.68
2018-05-21T13:38:58.546Z,19.63
2018-05-21T13:41:31.990Z,19.63
2018-05-21T13:44:05.563Z,19.62
2018-05-21T13:46:39.800Z,19.61
2018-05-21T13:49:12.766Z,19.62
2018-05-21T13:51:46.432Z,19.59
2018-05-21T13:54:19.181Z,19.56
2018-05-21T13:56:51.879Z,19.59
2018-05-21T13:59:24.889Z,19.56
2018-05-21T14:01:57.413Z,19.57
2018-05-21T14:04:30.662Z,19.59
2018-05-21T14:07:03.897Z,19.61
2018-05-21T14:09:37.072Z,19.63
2018-05-21T14:12:11.287Z,19.62
2018-05-21T14:14:43.898Z,19.60
2018-05-21T14:17:17.416Z,19.58
2018-05-21T14:19:50.340Z,19.54
2018-05-21T14:22:23.230Z,19.49
2018-05-21T14:24:55.646Z,19.50
2018-05-21T14:27:28.604Z,19.53
2018-05-21T14:30:01.241Z,19.53
2018-05-21T14:32:34.420Z,19.54
2018-05-21T14:35:07.184Z,19.50
2018-05-21T14:37:39.829Z,19.52
2018-05-21T14:40:12.950Z,19.54
2018-05-21T14:42:45.920Z,19.54
2018-05-21T14:45:18.816Z,19.57
2018-05-21T14:47:52.425Z,19.58
2018-05-21T14:50:25.375Z,19.57
2018-05-21T14:52:57.847Z,19.60
2018-05-21T14:55:30.947Z,19.58
2018-05-21T14:58:04.653Z,19.58
2018-05-21T15:00:37.458Z,19.62
2018-05-21T15:03:10.051Z,19.59
2018-05-21T15:05:43.059Z,19.57
2018-05-21T15:09:48.775Z,19.57
2018-05-21T15:12:22.273Z,19.57
2018-05-21T15:14:54.972Z,19.59
2018-05-21T15:17:28.428Z,19.64
2018-05-21T15:20:01.424Z,19.68
2018-05-21T15:22:34.239Z,19.68
2018-05-21T15:25:06.966Z,19.70
2018-05-21T15:27:40.345Z,19.69
2018-05-21T15:30:13.280Z,19.72
2018-05-21T15:32:46.433Z,19.76
2018-05-21T15:35:18.482Z,19.74
2018-05-21T15:37:51.244Z,19.77
2018-05-21T15:40:23.563Z,19.80
2018-05-21T15:42:56.310Z,19.80
2018-05-21T15:45:28.954Z,19.80
2018-05-21T15:48:02.108Z,19.81
2018-05-21T15:50:35.567Z,19.85
2018-05-21T15:53:08.126Z,19.90
2018-05-21T15:55:41.441Z,19.89
2018-05-21T15:58:14.079Z,19.92
2018-05-21T16:00:47.350Z,19.94
2018-05-21T16:03:20.418Z,19.89
2018-05-21T16:05:54.346Z,19.91
2018-05-21T16:08:27.286Z,19.95
2018-05-21T16:13:53.421Z,19.89
2018-05-21T16:16:25.093Z,20.02
2018-05-21T16:18:57.103Z,20.15
2018-05-21T16:21:30.320Z,20.24
2018-05-21T16:24:01.997Z,20.33
2018-05-21T16:26:33.844Z,20.39
2018-05-21T16:29:57.569Z,20.41
2018-05-21T16:32:29.299Z,20.43
2018-05-21T16:35:01.513Z,20.47
2018-05-21T16:37:33.264Z,20.51
2018-05-21T16:40:04.774Z,20.52
2018-05-21T16:42:36.452Z,20.53
2018-05-21T16:47:40.512Z,20.56
2018-05-21T16:50:14.025Z,20.59
2018-05-21T16:52:45.495Z,20.60
2018-05-21T16:55:17.092Z,20.65
2018-05-21T16:57:48.966Z,20.67
2018-05-21T17:00:20.374Z,20.70
2018-05-21T17:02:51.958Z,20.76
2018-05-21T17:05:23.439Z,20.81
2018-05-21T17:07:54.985Z,20.85
2018-05-21T17:10:26.578Z,20.90
2018-05-21T17:12:59.651Z,20.94
2018-05-21T17:15:31.466Z,20.98
2018-05-21T17:18:03.144Z,21.03
2018-05-21T17:20:34.567Z,21.11
2018-05-21T17:23:06.153Z,21.18
2018-05-21T17:25:37.988Z,21.24
2018-05-21T17:28:10.850Z,21.28
2018-05-21T17:30:42.572Z,21.34
2018-05-21T17:33:14.311Z,21.37
2018-05-21T17:35:46.487Z,21.42
2018-05-21T17:38:18.598Z,21.44
2018-05-21T17:40:50.366Z,21.48
2018-05-21T17:43:21.976Z,21.53
2018-05-21T17:45:53.577Z,21.58
2018-05-21T17:48:25.469Z,21.67
2018-05-21T17:50:57.440Z,21.74
2018-05-21T17:53:28.966Z,21.81
2018-05-21T17:56:00.591Z,21.90
2018-05-21T17:58:32.309Z,21.96
2018-05-21T18:01:03.947Z,21.96
2018-05-21T18:03:35.571Z,22.00
2018-05-21T18:06:07.064Z,22.05
2018-05-21T18:10:15.059Z,22.13
2018-05-21T18:12:47.049Z,22.20
2018-05-21T18:15:18.560Z,22.25
2018-05-21T18:17:50.349Z,22.33
2018-05-21T18:20:21.976Z,22.36
2018-05-21T18:22:53.436Z,22.41
2018-05-21T18:25:24.968Z,22.48
2018-05-21T18:27:57.125Z,22.53
2018-05-21T18:32:40.729Z,22.66
2018-05-21T18:35:12.435Z,22.70
2018-05-21T18:37:43.975Z,22.74
2018-05-21T18:40:15.976Z,22.82
2018-05-21T18:42:47.547Z,22.91
2018-05-21T18:45:19.444Z,23.03
2018-05-21T18:47:51.412Z,23.14
2018-05-21T18:50:23.071Z,23.20
2018-05-21T18:52:54.554Z,23.27
2018-05-21T18:55:26.216Z,23.35
2018-05-21T18:57:57.519Z,23.40
2018-05-21T19:00:29.104Z,23.39
2018-05-21T19:05:23.414Z,23.41
2018-05-21T19:07:54.969Z,23.40
2018-05-21T19:10:27.224Z,23.50
2018-05-21T19:15:08.177Z,23.73
2018-05-21T19:17:40.538Z,23.76
2018-05-21T19:20:12.401Z,23.80
2018-05-21T19:22:44.293Z,23.88
2018-05-21T19:25:15.911Z,23.95
2018-05-21T19:27:47.398Z,24.04
2018-05-21T19:30:18.946Z,24.12
2018-05-21T19:32:51.058Z,24.18
2018-05-21T19:35:23.021Z,24.23
2018-05-21T19:37:54.961Z,24.31
2018-05-21T19:40:26.578Z,24.40
2018-05-21T19:42:58.274Z,24.46
2018-05-21T19:45:29.932Z,24.51
2018-05-21T19:48:01.910Z,24.58
2018-05-21T19:50:33.806Z,24.68
2018-05-21T19:53:05.249Z,24.76
2018-05-21T19:55:36.618Z,24.85
2018-05-21T19:58:08.324Z,24.94
2018-05-21T20:00:39.974Z,25.05
2018-05-21T20:03:11.406Z,25.12
2018-05-21T20:06:20.546Z,25.17
2018-05-21T20:08:52.506Z,25.27
2018-05-21T20:11:24.314Z,25.36
2018-05-21T20:13:55.954Z,25.44
2018-05-21T20:16:27.525Z,25.54
2018-05-21T20:18:59.229Z,25.68
2018-05-21T20:21:30.967Z,25.80
2018-05-21T20:24:56.275Z,25.90
2018-05-21T20:27:27.952Z,26.03
2018-05-21T20:31:55.441Z,26.23
2018-05-21T20:34:28.709Z,26.30
2018-05-21T20:37:00.962Z,26.37
2018-05-21T20:40:24.697Z,26.43
2018-05-21T20:42:56.348Z,26.55
2018-05-21T20:45:28.069Z,26.62
2018-05-21T20:47:59.971Z,26.70
2018-05-21T20:50:31.449Z,26.81
2018-05-21T20:53:03.242Z,26.90
2018-05-21T20:55:35.138Z,27.03
2018-05-21T20:58:06.550Z,27.12
2018-05-21T21:00:38.345Z,27.25
2018-05-21T21:03:09.963Z,27.30
2018-05-21T21:05:41.556Z,27.39
2018-05-21T21:10:57.275Z,27.53
2018-05-21T21:13:29.068Z,27.66
2018-05-21T21:16:00.573Z,27.78
2018-05-21T21:18:32.349Z,27.90
2018-05-21T21:21:03.974Z,27.99
2018-05-21T21:23:35.971Z,28.08
2018-05-21T21:26:07.507Z,28.19
2018-05-21T21:28:39.355Z,28.25
2018-05-21T21:34:45.320Z,28.37
2018-05-21T21:37:16.820Z,28.46
2018-05-21T21:40:20.331Z,28.49
2018-05-21T21:42:51.962Z,28.57
2018-05-21T21:45:23.567Z,28.64
2018-05-21T21:47:55.480Z,28.73
2018-05-21T21:50:27.140Z,28.78
2018-05-21T21:52:58.552Z,28.82
2018-05-21T21:55:29.972Z,28.85
2018-05-21T21:58:01.482Z,28.93
2018-05-21T22:00:33.287Z,28.97
2018-05-21T22:03:04.919Z,29.02
2018-05-21T22:05:36.369Z,29.08
2018-05-21T22:08:07.979Z,29.15
2018-05-21T22:10:39.975Z,29.25
2018-05-21T22:13:11.582Z,29.33
2018-05-21T22:15:43.514Z,29.42
2018-05-21T22:18:15.368Z,29.50
2018-05-21T22:20:46.812Z,29.55
2018-05-21T22:23:18.442Z,29.63
2018-05-21T22:25:50.368Z,29.77
2018-05-21T22:28:21.994Z,29.88
2018-05-21T22:30:53.576Z,30.00
2018-05-21T22:33:25.136Z,30.17
2018-05-21T22:35:56.998Z,30.36
2018-05-21T22:39:37.830Z,30.60
2018-05-21T22:42:09.575Z,30.87
2018-05-21T22:44:43.830Z,31.07
2018-05-21T22:47:15.988Z,31.39
2018-05-21T22:49:48.008Z,31.74
2018-05-21T22:52:20.011Z,32.20
2018-05-21T22:54:51.568Z,32.60
2018-05-21T22:57:23.172Z,33.13
2018-05-21T22:59:54.588Z,33.78
2018-05-21T23:02:55.462Z,34.39
2018-05-21T23:05:27.303Z,34.73
2018-05-21T23:07:59.093Z,34.67
2018-05-21T23:10:30.563Z,34.19
2018-05-21T23:13:02.050Z,33.62
2018-05-21T23:15:33.568Z,33.07
2018-05-21T23:18:05.299Z,32.59
2018-05-21T23:20:36.599Z,32.23
2018-05-21T23:23:08.131Z,31.90
2018-05-21T23:25:39.603Z,31.61
2018-05-21T23:28:11.280Z,31.39
2018-05-21T23:30:42.616Z,31.23
2018-05-21T23:33:14.391Z,30.98
2018-05-21T23:35:46.119Z,30.81
2018-05-21T23:38:18.033Z,30.59
2018-05-21T23:40:49.512Z,30.45
2018-05-21T23:43:21.491Z,30.30
2018-05-21T23:45:52.959Z,30.13
2018-05-21T23:48:24.542Z,30.04
2018-05-21T23:50:56.336Z,29.90
2018-05-21T23:53:28.731Z,29.79
2018-05-21T23:56:00.410Z,29.71
2018-05-21T23:58:32.298Z,29.59
